Flight Track Log - Related Links

Times and Time Zones

All times are in EDT time to prevent confusion due to time zone crossing. See the SKW2988 flight status page for this flight to view local times or setup timezone preferences in your user account.

Time Position Orientation Groundspeed Altitude Reporting Facility
EDT Latitude Longitude Course Direction KTS MPH feet Rate Location/Type
Sat 12:58:34 AM 33.4333 -111.9333 84° East 200 230 3,400  Level Phoenix TRACON
Sat 12:59:11 AM 33.4369 -111.8900 84° East 215 247 4,600 1,776 Climbing Albuquerque Center
Sat 01:00:12 AM 33.4731 -111.8131 61° Northeast 276 318 6,300 2,132 Climbing Albuquerque Center
Sat 01:01:12 AM 33.5192 -111.7322 56° Northeast 295 339 8,900 2,182 Climbing Albuquerque Center
Sat 01:02:13 AM 33.5517 -111.6428 66° East 299 344 10,700 1,820 Climbing Albuquerque Center
Sat 01:03:14 AM 33.5892 -111.5414 66° East 332 382 12,600 1,785 Climbing Albuquerque Center
Sat 01:04:14 AM 33.6269 -111.4392 66° East 339 390 14,300 1,686 Climbing Albuquerque Center
Sat 01:05:15 AM 33.6661 -111.3294 67° East 356 410 16,000 1,785 Climbing Albuquerque Center
Sat 01:06:15 AM 33.7142 -111.1972 66° East 363 418 17,900 1,587 Climbing Albuquerque Center
Sat 01:07:16 AM 33.7553 -111.0811 67° East 377 434 19,200 1,339 Climbing Albuquerque Center
Sat 01:08:16 AM 33.7967 -110.9625 67° East 386 444 20,600 1,289 Climbing Albuquerque Center
Sat 01:09:17 AM 33.8397 -110.8417 67° East 393 452 21,800 1,190 Climbing Albuquerque Center
Sat 01:10:17 AM 33.8831 -110.7181 67° East 398 458 23,000 1,140 Climbing Albuquerque Center
Sat 01:11:18 AM 33.9272 -110.5953 67° East 401 461 24,100 1,041 Climbing Albuquerque Center
Sat 01:12:18 AM 33.9714 -110.4681 67° East 408 470 25,100 893 Climbing Albuquerque Center
Sat 01:13:19 AM 34.0197 -110.3314 67° East 415 478 25,900 744 Climbing Albuquerque Center
Sat 01:14:19 AM 34.0644 -110.2028 67° East 419 482 26,600 545 Climbing Albuquerque Center
Sat 01:15:20 AM 34.1106 -110.0686 67° East 424 488 27,000 197 Climbing Albuquerque Center
Sat 01:16:21 AM 34.1581 -109.9364 67° East 440 506 27,000  Level Albuquerque Center
Sat 01:17:21 AM 34.2047 -109.7967 68° East 458 527 27,000  Level Albuquerque Center
Sat 01:18:22 AM 34.2597 -109.6339 68° East 467 537 27,000  Level Albuquerque Center
Sat 01:19:22 AM 34.3067 -109.4956 68° East 467 537 27,000  Level Albuquerque Center
Sat 01:20:23 AM 34.3533 -109.3578 68° East 464 534 27,000  Level Albuquerque Center
Sat 01:21:23 AM 34.4083 -109.1953 68° East 468 539 27,000  Level Albuquerque Center
Sat 01:22:24 AM 34.4367 -109.0519 76° East 464 534 27,000  Level Albuquerque Center
Sat 01:23:24 AM 34.4550 -108.9047 81° East 464 534 27,000  Level Albuquerque Center
Sat 01:24:25 AM 34.4767 -108.7339 81° East 462 532 27,000  Level Albuquerque Center
Sat 01:25:25 AM 34.4956 -108.5850 81° East 464 534 27,000  Level Albuquerque Center
Sat 01:26:26 AM 34.5183 -108.4261 80° East 467 537 27,000  Level Albuquerque Center
Sat 01:27:26 AM 34.5453 -108.2747 78° East 464 534 27,000 -744 Level Albuquerque Center
Sat 01:28:27 AM 34.5697 -108.1236 79° East 459 528 25,500 -1,721 Descending Albuquerque Center
Sat 01:29:28 AM 34.5950 -107.9761 78° East 451 519 23,500 -1,983 Descending Albuquerque Center
Sat 01:30:28 AM 34.6222 -107.8219 78° East 461 531 21,500 -1,983 Descending Albuquerque Center
Sat 01:31:29 AM 34.6750 -107.6864 65° Northeast 447 514 19,500 -1,934 Descending Albuquerque Center
Sat 01:32:29 AM 34.7289 -107.5625 62° Northeast 424 488 17,600 -1,759 Descending Albuquerque Center
Sat 01:33:25 AM 34.7819 -107.4397 62° Northeast 396 456 16,100 -1,103 Descending Albuquerque Center
Sat 01:33:56 AM 34.8097 -107.3761 62° Northeast 393 452 16,000 -92 Descending Albuquerque Center
Sat 01:34:30 AM 34.8297 -107.3261 64° Northeast 395 455 16,000 -200 Level Albuquerque Center
Sat 01:34:56 AM 34.8492 -107.2578 71° East 382 440 15,800 -885 Descending Albuquerque Center
Sat 01:35:31 AM 34.8581 -107.2047 78° East 381 438 15,100 -1,574 Descending Albuquerque Center
Sat 01:35:57 AM 34.8694 -107.1392 78° East 346 398 14,200 -1,500 Descending Albuquerque Center
Sat 01:36:31 AM 34.8703 -107.0917 89° East 348 400 13,600 -1,333 Descending Albuquerque Center
Sat 01:36:51 AM 34.8739 -107.0397 85° East 312 359 13,000 -1,279 Descending Albuquerque Center
Sat 01:37:32 AM 34.8756 -106.9853 88° East 332 382 12,300 -1,254 Descending Albuquerque Center
Sat 01:37:58 AM 34.8789 -106.9325 86° East 287 330 11,600 -1,200 Descending Albuquerque Center
Sat 01:38:32 AM 34.8814 -106.8961 85° East 291 335 11,100 -1,377 Descending Albuquerque Center
Sat 01:38:59 AM 34.8881 -106.8497 80° East 240 276 10,200 -1,700 Descending Albuquerque Center
Sat 01:39:32 AM 34.8892 -106.8164 88° East 259 298 9,400 -2,000 Descending Albuquerque Center
Sat 01:39:53 AM 34.8997 -106.7822 69° East 226 260 8,400 -1,967 Descending Albuquerque Center
Sat 01:40:33 AM 34.9286 -106.7428 48° Northeast 239 275 7,400 -984 Descending Albuquerque Center
Sat 01:40:54 AM 34.9414 -106.7275 44° Northeast 219 252 7,400 -600 Level Albuquerque Center
Sat 01:41:33 AM 34.9675 -106.6953 45° Northeast 217 250 6,800 -900 Descending Albuquerque Center
Sat 01:41:54 AM 34.9808 -106.6836 36° Northeast 184 212 6,500 -885 Descending Albuquerque Center
Sat 01:42:34 AM 35.0025 -106.6519 50° Northeast 196 226 5,900 -984 Descending Albuquerque Center
Sat 01:42:55 AM 35.0175 -106.6378 38° Northeast 174 200 5,500 -500 Descending Albuquerque Center
Sat 01:43:34 AM 35.0328 -106.6150 51° Northeast 187 215 5,400 -154 Descending Albuquerque Center
Sat 01:45:00 AM 35.0333 -106.6000 59° Northeast  Level FlightAware Approximate

Login

Don't have an account? Register now (free) for customized features, flight alerts, and more!